createdAt,value
2018-02-19T00:00:03.309Z,82.46
2018-02-19T00:00:43.845Z,82.65
2018-02-19T00:01:24.377Z,82.65
2018-02-19T00:02:04.915Z,82.55
2018-02-19T00:02:45.428Z,82.65
2018-02-19T00:03:25.929Z,82.65
2018-02-19T00:04:06.491Z,82.55
2018-02-19T00:04:46.989Z,82.55
2018-02-19T00:05:27.544Z,82.55
2018-02-19T00:06:08.064Z,82.27
2018-02-19T00:06:48.582Z,82.27
2018-02-19T00:07:29.130Z,82.17
2018-02-19T00:08:09.646Z,82.17
2018-02-19T00:08:50.157Z,82.27
2018-02-19T00:09:30.701Z,82.46
2018-02-19T00:10:11.239Z,82.36
2018-02-19T00:10:51.799Z,82.74
2018-02-19T00:11:32.295Z,82.55
2018-02-19T00:12:12.902Z,82.36
2018-02-19T00:12:53.401Z,82.74
2018-02-19T00:13:33.960Z,82.65
2018-02-19T00:14:14.491Z,83.03
2018-02-19T00:14:55.035Z,82.84
2018-02-19T00:15:35.790Z,83.22
2018-02-19T00:16:16.130Z,83.03
2018-02-19T00:16:56.620Z,83.03
2018-02-19T00:17:37.162Z,83.12
2018-02-19T00:18:17.671Z,82.84
2018-02-19T00:18:58.214Z,83.03
2018-02-19T00:19:38.762Z,82.65
2018-02-19T00:20:19.264Z,82.31
2018-02-19T00:20:59.802Z,82.69
2018-02-19T00:21:40.320Z,81.84
2018-02-19T00:22:20.867Z,82.21
2018-02-19T00:23:01.403Z,82.03
2018-02-19T00:23:41.938Z,82.12
2018-02-19T00:24:22.446Z,82.88
2018-02-19T00:25:02.971Z,82.5
2018-02-19T00:25:43.492Z,82.69
2018-02-19T00:26:24.026Z,82.59
2018-02-19T00:27:04.533Z,82.12
2018-02-19T00:27:45.059Z,82.69
2018-02-19T00:28:25.574Z,81.84
2018-02-19T00:29:06.119Z,82.4
2018-02-19T00:29:46.665Z,82.12
2018-02-19T00:30:27.162Z,81.93
2018-02-19T00:31:07.677Z,81.74
2018-02-19T00:31:48.172Z,82.12
2018-02-19T00:32:28.699Z,82.21
2018-02-19T00:33:09.232Z,82.31
2018-02-19T00:33:49.766Z,82.59
2018-02-19T00:34:30.310Z,82.31
2018-02-19T00:35:10.828Z,82.03
2018-02-19T00:35:51.325Z,82.03
2018-02-19T00:36:31.850Z,82.12
2018-02-19T00:37:12.421Z,82.12
2018-02-19T00:37:52.907Z,82.21
2018-02-19T00:38:33.465Z,82.17
2018-02-19T00:39:13.986Z,82.17
2018-02-19T00:39:54.508Z,82.36
2018-02-19T00:40:35.037Z,82.65
2018-02-19T00:41:15.554Z,83.03
2018-02-19T00:41:56.131Z,82.65
2018-02-19T00:42:36.662Z,83.07
2018-02-19T00:43:17.179Z,82.69
2018-02-19T00:43:57.723Z,82.4
2018-02-19T00:44:38.278Z,82.59
2018-02-19T00:45:18.789Z,82.69
2018-02-19T00:45:59.325Z,82.4
2018-02-19T00:46:39.846Z,82.69
2018-02-19T00:47:20.339Z,82.69
2018-02-19T00:48:00.913Z,82.12
2018-02-19T00:48:41.437Z,82.31
2018-02-19T00:49:21.930Z,82.31
2018-02-19T00:50:02.495Z,82.21
2018-02-19T00:50:43.021Z,82.69
2018-02-19T00:51:23.552Z,82.31
2018-02-19T00:52:04.087Z,82.88
2018-02-19T00:52:44.631Z,82.12
2018-02-19T00:53:25.121Z,82.31
2018-02-19T00:54:05.690Z,82.31
2018-02-19T00:54:46.211Z,82.4
2018-02-19T00:55:26.731Z,82.21
2018-02-19T00:56:07.241Z,81.55
2018-02-19T00:56:47.772Z,82.31
2018-02-19T00:57:28.298Z,81.65
2018-02-19T00:58:08.876Z,82.21
2018-02-19T00:58:49.424Z,82.03
2018-02-19T00:59:29.982Z,81.84
2018-02-19T01:00:10.521Z,82.21
2018-02-19T01:00:51.064Z,82.31
2018-02-19T01:01:31.609Z,82.69
2018-02-19T01:02:12.182Z,82.5
2018-02-19T01:02:52.724Z,82.59
2018-02-19T01:03:33.336Z,81.45
2018-02-19T01:04:13.930Z,81.26
2018-02-19T01:04:54.392Z,81.45
2018-02-19T01:05:34.902Z,81.26
2018-02-19T01:06:15.450Z,81.26
2018-02-19T01:06:56.003Z,81.74
2018-02-19T01:07:36.556Z,82.4
2018-02-19T01:08:17.078Z,82.03
2018-02-19T01:08:57.609Z,82.12
2018-02-19T01:09:38.133Z,82.12
2018-02-19T01:10:18.760Z,81.65
2018-02-19T01:10:59.353Z,82.03
2018-02-19T01:11:39.948Z,81.84
2018-02-19T01:12:20.474Z,81.36
2018-02-19T01:13:01.709Z,81.36
2018-02-19T01:13:41.575Z,81.23
2018-02-19T01:14:22.105Z,81.55
2018-02-19T01:15:02.667Z,82.31
2018-02-19T01:15:43.221Z,81.74
2018-02-19T01:16:23.776Z,81.26
2018-02-19T01:17:04.304Z,81.79
2018-02-19T01:17:44.867Z,82.59
2018-02-19T01:18:25.397Z,82.59
2018-02-19T01:19:05.982Z,82.03
2018-02-19T01:19:46.553Z,82.12
2018-02-19T01:20:27.139Z,82.31
2018-02-19T01:21:07.627Z,81.74
2018-02-19T01:21:48.180Z,81.84
2018-02-19T01:22:28.756Z,82.12
2018-02-19T01:23:09.308Z,82.21
2018-02-19T01:23:49.940Z,81.45
2018-02-19T01:24:30.533Z,81.55
2018-02-19T01:25:11.031Z,81.36
2018-02-19T01:25:51.585Z,81.17
2018-02-19T01:26:32.116Z,81.26
2018-02-19T01:27:12.647Z,81.26
2018-02-19T01:27:53.180Z,81.17
2018-02-19T01:28:33.731Z,81.51
2018-02-19T01:29:14.254Z,81.17
2018-02-19T01:29:54.794Z,81.17
2018-02-19T01:30:35.395Z,81.45
2018-02-19T01:31:15.920Z,81.65
2018-02-19T01:31:56.455Z,81.65
2018-02-19T01:32:37.080Z,81.07
2018-02-19T01:33:17.593Z,80.98
2018-02-19T01:33:58.154Z,80.98
2018-02-19T01:34:38.653Z,80.98
2018-02-19T01:35:19.134Z,80.98
2018-02-19T01:35:59.703Z,81.55
2018-02-19T01:36:40.241Z,81.65
2018-02-19T01:37:20.805Z,81.55
2018-02-19T01:38:01.357Z,81.26
2018-02-19T01:38:41.862Z,81.65
2018-02-19T01:39:22.392Z,81.07
2018-02-19T01:40:02.932Z,80.88
2018-02-19T01:40:43.533Z,80.79
2018-02-19T01:41:24.029Z,80.88
2018-02-19T01:42:04.594Z,81.55
2018-02-19T01:42:45.182Z,80.98
2018-02-19T01:43:25.738Z,81.26
2018-02-19T01:44:06.280Z,81.45
2018-02-19T01:44:46.827Z,81.74
2018-02-19T01:45:27.375Z,81.84
2018-02-19T01:46:07.871Z,80.79
2018-02-19T01:46:48.430Z,80.03
2018-02-19T01:47:28.944Z,80.03
2018-02-19T01:48:09.536Z,79.65
2018-02-19T01:48:50.045Z,80.03
2018-02-19T01:49:30.536Z,79.74
2018-02-19T01:50:11.069Z,79.65
2018-02-19T01:50:51.614Z,79.84
2018-02-19T01:51:32.174Z,79.74
2018-02-19T01:52:12.867Z,79.94
2018-02-19T01:52:53.436Z,80.13
2018-02-19T01:53:34.153Z,79.84
2018-02-19T01:54:14.730Z,79.65
2018-02-19T01:54:55.262Z,80.03
2018-02-19T01:55:35.787Z,79.84
2018-02-19T01:56:16.325Z,79.94
2018-02-19T01:56:56.854Z,79.84
2018-02-19T01:57:37.367Z,79.84
2018-02-19T01:58:17.888Z,79.55
2018-02-19T01:58:58.407Z,79.46
2018-02-19T01:59:39.247Z,78.89
2018-02-19T02:00:20.198Z,78.7
2018-02-19T02:01:00.807Z,78.99
2018-02-19T02:01:41.308Z,79.55
2018-02-19T02:02:22.135Z,79.36
2018-02-19T02:03:02.554Z,79.65
2018-02-19T02:03:43.066Z,79.27
2018-02-19T02:04:23.614Z,78.8
2018-02-19T02:05:04.370Z,78.99
2018-02-19T02:05:44.844Z,78.51
2018-02-19T02:06:25.355Z,77.84
2018-02-19T02:07:05.926Z,77.94
2018-02-19T02:07:46.569Z,78.03
2018-02-19T02:08:27.084Z,78.13
2018-02-19T02:09:07.578Z,78.32
2018-02-19T02:09:48.120Z,78.03
2018-02-19T02:10:28.793Z,78.42
2018-02-19T02:11:09.198Z,79.08
2018-02-19T02:11:49.796Z,78.89
2018-02-19T02:12:30.290Z,78.51
2018-02-19T02:13:11.168Z,78.7
2018-02-19T02:13:51.864Z,77.84
2018-02-19T02:14:32.470Z,77.56
2018-02-19T02:15:13.024Z,77.56
2018-02-19T02:15:53.827Z,77.66
2018-02-19T02:16:34.572Z,77.94
2018-02-19T02:17:14.896Z,78.03
2018-02-19T02:17:55.476Z,77.84
2018-02-19T02:18:36.025Z,78.7
2018-02-19T02:19:16.873Z,78.51
2018-02-19T02:19:57.404Z,78.51
2018-02-19T02:20:38.023Z,78.61
2018-02-19T02:21:18.627Z,78.7
2018-02-19T02:21:59.588Z,78.61
2018-02-19T02:22:39.822Z,78.32
2018-02-19T02:23:20.362Z,79.08
2018-02-19T02:24:01.142Z,79.08
2018-02-19T02:24:42.311Z,78.61
2018-02-19T02:25:23.046Z,78.7
2018-02-19T02:26:03.577Z,77.75
2018-02-19T02:26:44.158Z,77.84
2018-02-19T02:27:24.758Z,78.7
2018-02-19T02:28:05.696Z,78.7
2018-02-19T02:28:45.860Z,78.7
2018-02-19T02:29:26.373Z,78.03
2018-02-19T02:30:07.188Z,77.94
2018-02-19T02:30:48.105Z,77.66
2018-02-19T02:31:28.734Z,77.84
2018-02-19T02:32:09.273Z,78.32
2018-02-19T02:32:49.871Z,77.94
2018-02-19T02:33:30.433Z,78.42
2018-02-19T02:34:10.952Z,78.61
2018-02-19T02:34:51.477Z,78.42
2018-02-19T02:35:32.052Z,78.61
2018-02-19T02:36:12.799Z,78.32
2018-02-19T02:36:53.650Z,77.66
2018-02-19T02:37:34.043Z,78.03
2018-02-19T02:38:14.532Z,77.84
2018-02-19T02:38:55.049Z,77.75
2018-02-19T02:39:35.988Z,78.03
2018-02-19T02:40:16.539Z,77.84
2018-02-19T02:40:57.091Z,77.84
2018-02-19T02:41:37.599Z,77.75
2018-02-19T02:42:18.174Z,77.56
2018-02-19T02:42:58.735Z,77.94
2018-02-19T02:43:39.228Z,78.42
2018-02-19T02:44:19.756Z,77.66
2018-02-19T02:45:00.305Z,77.37
2018-02-19T02:45:40.828Z,77.66
2018-02-19T02:46:21.385Z,77.47
2018-02-19T02:47:01.942Z,76.9
2018-02-19T02:47:42.859Z,77.28
2018-02-19T02:48:23.460Z,77.37
2018-02-19T02:49:03.915Z,77.56
2018-02-19T02:49:44.497Z,77.56
2018-02-19T02:50:25.057Z,77.56
2018-02-19T02:51:05.899Z,77.37
2018-02-19T02:51:46.295Z,77.94
2018-02-19T02:52:26.784Z,77.37
2018-02-19T02:53:07.448Z,77.47
2018-02-19T02:53:48.094Z,77.56
2018-02-19T02:54:28.564Z,77.66
2018-02-19T02:55:09.104Z,77.47
2018-02-19T02:55:49.746Z,78.03
2018-02-19T02:56:30.431Z,78.03
2018-02-19T02:57:11.004Z,77.66
2018-02-19T02:57:51.517Z,77.75
2018-02-19T02:58:32.162Z,77.75
2018-02-19T02:59:12.744Z,77.47
2018-02-19T02:59:53.483Z,77.47
2018-02-19T03:00:33.782Z,77.09
2018-02-19T03:01:14.415Z,77.37
2018-02-19T03:01:54.900Z,77.37
2018-02-19T03:02:35.659Z,77.56
2018-02-19T03:03:16.067Z,77.47
2018-02-19T03:03:56.602Z,77.94
2018-02-19T03:04:37.300Z,77.37
2018-02-19T03:05:18.068Z,77.47
2018-02-19T03:05:58.587Z,77.84
2018-02-19T03:06:39.098Z,77.56
2018-02-19T03:07:19.693Z,77.75
2018-02-19T03:08:00.243Z,77.75
2018-02-19T03:08:40.794Z,77.47
2018-02-19T03:09:21.339Z,77.75
2018-02-19T03:10:01.864Z,77.56
2018-02-19T03:10:42.427Z,77.37
2018-02-19T03:11:23.023Z,77.56
2018-02-19T03:12:03.556Z,77.47
2018-02-19T03:12:44.102Z,78.03
2018-02-19T03:13:24.717Z,78.13
2018-02-19T03:14:05.955Z,77.84
2018-02-19T03:14:46.345Z,78.03
2018-02-19T03:15:26.844Z,77.47
2018-02-19T03:16:07.389Z,77.37
2018-02-19T03:16:48.532Z,76.71
2018-02-19T03:17:28.731Z,76.61
2018-02-19T03:18:09.238Z,76.52
2018-02-19T03:18:49.789Z,76.9
2018-02-19T03:19:30.373Z,77.09
2018-02-19T03:20:10.938Z,76.9
2018-02-19T03:20:51.475Z,77.28
2018-02-19T03:21:32.014Z,77.84
2018-02-19T03:22:12.619Z,77.75
2018-02-19T03:22:53.956Z,78.03
2018-02-19T03:23:34.336Z,77.37
2018-02-19T03:24:14.906Z,76.61
2018-02-19T03:24:55.552Z,76.99
2018-02-19T03:25:36.093Z,77.18
2018-02-19T03:26:16.640Z,77.18
2018-02-19T03:26:57.204Z,76.42
2018-02-19T03:27:37.704Z,75.85
2018-02-19T03:28:18.396Z,76.23
2018-02-19T03:28:58.789Z,77.47
2018-02-19T03:29:39.294Z,77.09
2018-02-19T03:30:19.881Z,76.99
2018-02-19T03:31:00.417Z,77.28
2018-02-19T03:31:40.952Z,76.8
2018-02-19T03:32:21.473Z,77.47
2018-02-19T03:33:03.468Z,77.28
2018-02-19T03:33:44.175Z,76.52
2018-02-19T03:34:24.769Z,76.71
2018-02-19T03:35:05.275Z,76.23
2018-02-19T03:35:45.933Z,76.52
2018-02-19T03:36:26.768Z,75.57
2018-02-19T03:37:07.741Z,75.95
2018-02-19T03:37:47.898Z,75.95
2018-02-19T03:38:28.449Z,76.42
2018-02-19T03:39:08.989Z,76.14
2018-02-19T03:39:49.512Z,76.32
2018-02-19T03:40:30.095Z,76.52
2018-02-19T03:41:10.616Z,76.52
2018-02-19T03:41:51.297Z,76.42
2018-02-19T03:42:32.036Z,76.42
2018-02-19T03:43:12.637Z,76.46
2018-02-19T03:43:53.401Z,75.85
2018-02-19T03:44:34.035Z,75.67
2018-02-19T03:45:14.557Z,75.67
2018-02-19T03:45:55.072Z,76.04
2018-02-19T03:46:36.247Z,75.95
2018-02-19T03:47:17.077Z,76.42
2018-02-19T03:47:57.808Z,75.38
2018-02-19T03:48:38.415Z,75.19
2018-02-19T03:49:18.953Z,75.47
2018-02-19T03:49:59.494Z,75.28
2018-02-19T03:50:40.011Z,75.38
2018-02-19T03:51:20.566Z,75.95
2018-02-19T03:52:01.257Z,75.85
2018-02-19T03:52:41.819Z,75.67
2018-02-19T03:53:22.559Z,76.04
2018-02-19T03:54:03.355Z,76.32
2018-02-19T03:54:43.838Z,75.85
2018-02-19T03:55:24.543Z,75.28
2018-02-19T03:56:05.104Z,74.33
2018-02-19T03:56:45.838Z,73.48
2018-02-19T03:57:27.103Z,73.76
2018-02-19T03:58:07.480Z,74.05
2018-02-19T03:58:47.980Z,74.62
2018-02-19T03:59:28.502Z,74.52
2018-02-19T04:00:09.028Z,74.15
2018-02-19T04:00:49.490Z,74.52
2018-02-19T04:01:30.032Z,74.62
2018-02-19T04:02:10.585Z,75
2018-02-19T04:02:52.461Z,75.38
2018-02-19T04:03:33.062Z,75.28
2018-02-19T04:04:13.595Z,75.47
2018-02-19T04:04:54.127Z,75.57
2018-02-19T04:05:34.683Z,75.47
2018-02-19T04:06:15.197Z,75.09
2018-02-19T04:06:55.746Z,75.09
2018-02-19T04:07:36.261Z,75.09
2018-02-19T04:08:16.764Z,75.19
2018-02-19T04:08:57.356Z,74.33
2018-02-19T04:09:37.859Z,74.33
2018-02-19T04:10:18.496Z,74.24
2018-02-19T04:10:58.988Z,74.33
2018-02-19T04:11:39.592Z,74.24
2018-02-19T04:12:20.117Z,74.24
2018-02-19T04:13:00.646Z,75.19
2018-02-19T04:13:41.194Z,75
2018-02-19T04:14:21.748Z,75.09
2018-02-19T04:15:02.310Z,75
2018-02-19T04:15:42.973Z,75
2018-02-19T04:16:23.482Z,75.19
2018-02-19T04:17:04.037Z,74.52
2018-02-19T04:17:44.638Z,75.09
2018-02-19T04:18:25.109Z,75.38
2018-02-19T04:19:05.662Z,75.28
2018-02-19T04:19:46.268Z,75.32
2018-02-19T04:20:26.760Z,75.19
2018-02-19T04:21:07.263Z,75.32
2018-02-19T04:21:47.881Z,75.09
2018-02-19T04:22:28.354Z,74.9
2018-02-19T04:23:08.873Z,74.43
2018-02-19T04:23:49.400Z,75.09
2018-02-19T04:24:29.935Z,75.67
2018-02-19T04:25:10.472Z,75.28
2018-02-19T04:25:51.031Z,75.57
2018-02-19T04:26:31.540Z,75.47
2018-02-19T04:27:12.079Z,75.28
2018-02-19T04:27:52.596Z,75.47
2018-02-19T04:28:33.130Z,75.85
2018-02-19T04:29:13.730Z,75.85
2018-02-19T04:29:54.294Z,75.85
2018-02-19T04:30:34.869Z,76.04
2018-02-19T04:31:15.418Z,75.28
2018-02-19T04:31:56.067Z,75.38
2018-02-19T04:32:36.552Z,75.57
2018-02-19T04:33:17.068Z,75.19
2018-02-19T04:33:57.615Z,75.19
2018-02-19T04:34:38.160Z,75.47
2018-02-19T04:35:18.738Z,75.19
2018-02-19T04:35:59.248Z,75.38
2018-02-19T04:36:39.777Z,75.85
2018-02-19T04:37:20.328Z,75.57
2018-02-19T04:38:00.854Z,75.85
2018-02-19T04:38:41.378Z,75.95
2018-02-19T04:39:21.922Z,75.95
2018-02-19T04:40:02.488Z,75.76
2018-02-19T04:40:42.992Z,76.04
2018-02-19T04:41:23.527Z,75.95
2018-02-19T04:42:04.053Z,76.04
2018-02-19T04:42:44.593Z,75.28
2018-02-19T04:43:25.134Z,75.38
2018-02-19T04:44:05.688Z,75.28
2018-02-19T04:44:46.195Z,75.85
2018-02-19T04:45:26.744Z,75.67
2018-02-19T04:46:07.264Z,75.57
2018-02-19T04:46:47.795Z,75.67
2018-02-19T04:47:28.305Z,75.57
2018-02-19T04:48:08.860Z,75.76
2018-02-19T04:48:49.404Z,75.28
2018-02-19T04:49:29.920Z,75.38
2018-02-19T04:50:10.464Z,75.85
2018-02-19T04:50:51.049Z,75.67
2018-02-19T04:51:31.570Z,75.85
2018-02-19T04:52:12.112Z,75.19
2018-02-19T04:52:52.668Z,75.38
2018-02-19T04:53:33.167Z,75.38
2018-02-19T04:54:13.670Z,76.04
2018-02-19T04:54:54.197Z,76.23
2018-02-19T04:55:34.724Z,76.14
2018-02-19T04:56:15.218Z,76.42
2018-02-19T04:56:55.786Z,76.42
2018-02-19T04:57:36.316Z,76.32
2018-02-19T04:58:16.906Z,76.42
2018-02-19T04:58:57.415Z,75.95
2018-02-19T04:59:37.916Z,75.67
2018-02-19T05:00:18.424Z,76.42
2018-02-19T05:00:58.983Z,76.32
2018-02-19T05:01:39.620Z,76.32
2018-02-19T05:02:20.164Z,76.42
2018-02-19T05:03:00.743Z,76.32
2018-02-19T05:03:41.273Z,76.23
2018-02-19T05:04:21.826Z,76.42
2018-02-19T05:05:02.427Z,76.52
2018-02-19T05:05:42.983Z,76.9
2018-02-19T05:06:23.498Z,77.09
2018-02-19T05:07:04.059Z,76.71
2018-02-19T05:07:44.588Z,76.8
2018-02-19T05:08:25.120Z,76.32
2018-02-19T05:09:05.637Z,76.42
2018-02-19T05:09:46.162Z,76.52
2018-02-19T05:10:26.742Z,76.32
2018-02-19T05:11:07.233Z,76.04
2018-02-19T05:11:47.799Z,76.52
2018-02-19T05:12:28.315Z,76.23
2018-02-19T05:13:08.882Z,76.14
2018-02-19T05:13:49.411Z,76.42
2018-02-19T05:14:29.908Z,76.23
2018-02-19T05:15:10.438Z,76.9
2018-02-19T05:15:50.924Z,76.71
2018-02-19T05:16:31.467Z,77.18
2018-02-19T05:17:12.011Z,77.09
2018-02-19T05:17:52.564Z,77.28
2018-02-19T05:18:33.059Z,77.28
2018-02-19T05:19:13.584Z,77.56
2018-02-19T05:19:54.161Z,77.56
2018-02-19T05:20:34.647Z,77.09
2018-02-19T05:21:15.186Z,76.9
2018-02-19T05:21:55.738Z,76.9
2018-02-19T05:22:36.368Z,77.47
2018-02-19T05:23:16.862Z,77.47
2018-02-19T05:23:57.402Z,77.18
2018-02-19T05:24:37.954Z,77.47
2018-02-19T05:25:18.493Z,76.14
2018-02-19T05:25:59.064Z,75.95
2018-02-19T05:26:39.627Z,76.42
2018-02-19T05:27:20.191Z,76.32
2018-02-19T05:28:00.778Z,76.8
2018-02-19T05:28:41.339Z,76.61
2018-02-19T05:29:21.896Z,76.99
2018-02-19T05:30:02.524Z,76.8
2018-02-19T05:30:43.027Z,76.42
2018-02-19T05:31:23.582Z,76.42
2018-02-19T05:32:04.138Z,76.52
2018-02-19T05:32:44.688Z,76.23
2018-02-19T05:33:25.246Z,76.52
2018-02-19T05:34:05.796Z,76.23
2018-02-19T05:34:46.334Z,76.14
2018-02-19T05:35:26.891Z,76.71
2018-02-19T05:36:07.437Z,76.61
2018-02-19T05:36:48.001Z,76.9
2018-02-19T05:37:28.545Z,76.71
2018-02-19T05:38:09.140Z,76.99
2018-02-19T05:38:49.706Z,77.09
2018-02-19T05:39:30.266Z,77.47
2018-02-19T05:40:10.819Z,77.84
2018-02-19T05:40:51.412Z,77.37
2018-02-19T05:41:31.929Z,77.66
2018-02-19T05:42:12.482Z,77.84
2018-02-19T05:42:53.033Z,77.18
2018-02-19T05:43:33.599Z,76.42
2018-02-19T05:44:14.979Z,76.71
2018-02-19T05:44:55.564Z,76.8
2018-02-19T05:45:36.130Z,76.61
2018-02-19T05:46:16.698Z,77.28
2018-02-19T05:46:57.250Z,77.09
2018-02-19T05:47:37.858Z,77.09
2018-02-19T05:48:18.373Z,76.8
2018-02-19T05:48:58.935Z,76.71
2018-02-19T05:49:39.486Z,76.52
2018-02-19T05:50:20.034Z,76.8
2018-02-19T05:51:00.562Z,77.28
2018-02-19T05:51:41.129Z,77.18
2018-02-19T05:52:21.705Z,77.09
2018-02-19T05:53:02.278Z,77.28
2018-02-19T05:53:42.873Z,76.9
2018-02-19T05:54:23.580Z,76.99
2018-02-19T05:55:04.096Z,77.47
2018-02-19T05:55:44.680Z,76.14
2018-02-19T05:56:25.205Z,76.32
2018-02-19T05:57:05.838Z,76.52
2018-02-19T05:57:46.348Z,76.42
2018-02-19T05:58:26.909Z,76.04
2018-02-19T05:59:07.466Z,76.14
2018-02-19T05:59:48.033Z,76.14
2018-02-19T06:00:28.593Z,76.23
2018-02-19T06:01:09.224Z,76.32
2018-02-19T06:01:49.775Z,76.52
2018-02-19T06:02:30.333Z,76.52
2018-02-19T06:03:10.902Z,76.99
2018-02-19T06:03:51.464Z,77.37
2018-02-19T06:04:32.012Z,77.66
2018-02-19T06:05:12.559Z,76.99
2018-02-19T06:05:53.130Z,76.71
2018-02-19T06:06:33.660Z,76.61
2018-02-19T06:07:14.239Z,77.28
2018-02-19T06:07:54.790Z,77.56
2018-02-19T06:08:35.370Z,77.56
2018-02-19T06:09:15.954Z,77.56
2018-02-19T06:09:56.698Z,77.56
2018-02-19T06:10:37.259Z,78.23
2018-02-19T06:11:18.019Z,78.32
2018-02-19T06:11:58.548Z,77.47
2018-02-19T06:12:39.088Z,77.56
2018-02-19T06:13:19.654Z,77.47
2018-02-19T06:14:00.211Z,77.56
2018-02-19T06:14:40.801Z,77.66
2018-02-19T06:15:21.352Z,77.47
2018-02-19T06:16:01.968Z,77.37
2018-02-19T06:16:42.521Z,76.99
2018-02-19T06:17:23.079Z,76.99
2018-02-19T06:18:03.649Z,76.99
2018-02-19T06:18:44.205Z,77.66
2018-02-19T06:19:24.758Z,77.37
2018-02-19T06:20:05.321Z,77.09
2018-02-19T06:20:46.379Z,77.37
2018-02-19T06:21:26.870Z,77.47
2018-02-19T06:22:07.384Z,76.9
2018-02-19T06:22:47.946Z,76.61
2018-02-19T06:23:28.496Z,76.52
2018-02-19T06:24:09.037Z,76.71
2018-02-19T06:24:49.591Z,76.61
2018-02-19T06:25:30.141Z,77.09
2018-02-19T06:26:10.740Z,76.32
2018-02-19T06:26:51.318Z,76.32
2018-02-19T06:27:31.940Z,76.52
2018-02-19T06:28:12.511Z,76.52
2018-02-19T06:28:53.072Z,76.32
2018-02-19T06:29:33.705Z,76.32
2018-02-19T06:30:14.271Z,76.99
2018-02-19T06:30:54.824Z,77.47
2018-02-19T06:31:35.365Z,77.37
2018-02-19T06:32:15.908Z,77.09
2018-02-19T06:32:56.456Z,76.32
2018-02-19T06:33:37.013Z,76.61
2018-02-19T06:34:17.570Z,76.32
2018-02-19T06:34:58.126Z,76.23
2018-02-19T06:35:38.676Z,76.04
2018-02-19T06:36:19.232Z,76.23
2018-02-19T06:36:59.800Z,76.14
2018-02-19T06:37:40.331Z,76.14
2018-02-19T06:38:20.933Z,76.99
2018-02-19T06:39:01.489Z,77.47
2018-02-19T06:39:42.053Z,77.75
2018-02-19T06:40:22.604Z,78.51
2018-02-19T06:41:03.156Z,77.84
2018-02-19T06:41:43.730Z,77.75
2018-02-19T06:42:24.363Z,77.94
2018-02-19T06:43:04.903Z,78.42
2018-02-19T06:43:45.458Z,80.03
2018-02-19T06:44:26.013Z,81.17
2018-02-19T06:45:06.583Z,81.74
2018-02-19T06:45:47.126Z,80.98
2018-02-19T06:46:27.735Z,79.84
2018-02-19T06:47:08.297Z,78.89
2018-02-19T06:47:48.841Z,77.66
2018-02-19T06:48:29.520Z,78.61
2018-02-19T06:49:10.077Z,78.61
2018-02-19T06:49:50.639Z,77.56
2018-02-19T06:50:31.203Z,77.84
2018-02-19T06:51:11.771Z,78.51
2018-02-19T06:51:52.350Z,79.94
2018-02-19T06:52:32.862Z,79.17
2018-02-19T06:53:13.429Z,77.84
2018-02-19T06:53:53.996Z,77.56
2018-02-19T06:54:34.558Z,77.56
2018-02-19T06:55:15.111Z,77.75
2018-02-19T06:55:55.656Z,79.46
2018-02-19T06:56:36.204Z,79.36
2018-02-19T06:57:16.764Z,78.7
2018-02-19T06:57:57.326Z,78.13
2018-02-19T06:58:37.884Z,76.99
2018-02-19T06:59:18.458Z,77.75
2018-02-19T06:59:59.011Z,77.84
2018-02-19T07:00:39.712Z,77.84
2018-02-19T07:01:20.393Z,79.08
2018-02-19T07:02:00.966Z,77.84
2018-02-19T07:02:41.536Z,77.84
2018-02-19T07:03:22.091Z,78.03
2018-02-19T07:04:02.658Z,77.84
2018-02-19T07:04:43.530Z,78.51
2018-02-19T07:05:24.374Z,78.42
2018-02-19T07:06:04.927Z,78.51
2018-02-19T07:06:45.472Z,78.8
2018-02-19T07:07:26.265Z,78.03
2018-02-19T07:08:06.833Z,77.94
2018-02-19T07:08:47.384Z,78.8
2018-02-19T07:09:27.953Z,78.7
2018-02-19T07:10:08.509Z,78.8
2018-02-19T07:10:49.075Z,78.8
2018-02-19T07:11:29.619Z,78.42
2018-02-19T07:12:10.211Z,78.42
2018-02-19T07:12:50.807Z,78.89
2018-02-19T07:13:31.385Z,79.46
2018-02-19T07:14:11.961Z,78.99
2018-02-19T07:14:52.491Z,77.75
2018-02-19T07:15:33.051Z,77.47
2018-02-19T07:16:13.621Z,77.84
2018-02-19T07:16:54.188Z,77.56
2018-02-19T07:17:34.721Z,76.99
2018-02-19T07:18:16.219Z,76.42
2018-02-19T07:18:56.786Z,76.71
2018-02-19T07:19:37.357Z,77.75
2018-02-19T07:20:17.878Z,79.46
2018-02-19T07:20:58.449Z,79.36
2018-02-19T07:21:39.012Z,80.6
2018-02-19T07:22:19.560Z,81.98
2018-02-19T07:23:00.428Z,82.65
2018-02-19T07:23:41.046Z,83.73
2018-02-19T07:24:21.592Z,83.45
2018-02-19T07:25:02.159Z,81.26
2018-02-19T07:25:42.702Z,79.84
2018-02-19T07:26:23.287Z,78.8
2018-02-19T07:27:03.851Z,78.13
2018-02-19T07:27:44.421Z,81.07
2018-02-19T07:28:25.008Z,84.78
2018-02-19T07:29:05.606Z,87.24
2018-02-19T07:29:46.180Z,94.08
2018-02-19T07:30:26.776Z,99.99
2018-02-19T07:31:07.322Z,99.07
2018-02-19T07:31:47.895Z,99.99
2018-02-19T07:32:28.480Z,99.73
2018-02-19T07:33:09.044Z,96.03
2018-02-19T07:33:49.630Z,99.99
2018-02-19T07:34:30.556Z,99.99
2018-02-19T07:35:11.134Z,99.83
2018-02-19T07:35:51.765Z,99.99
2018-02-19T07:36:32.321Z,99.99
2018-02-19T07:37:12.916Z,93.84
2018-02-19T07:37:53.462Z,90.61
2018-02-19T07:38:34.013Z,88.24
2018-02-19T07:39:14.572Z,87.76
2018-02-19T07:39:55.163Z,86.91
2018-02-19T07:40:35.704Z,85.86
2018-02-19T07:41:16.281Z,84.16
2018-02-19T07:41:56.839Z,84.25
2018-02-19T07:42:37.678Z,92.42
2018-02-19T07:43:18.218Z,93.37
2018-02-19T07:43:58.939Z,88.9
2018-02-19T07:44:39.493Z,86.53
2018-02-19T07:45:20.278Z,89.57
2018-02-19T07:46:00.879Z,94.03
2018-02-19T07:46:41.447Z,91.75
2018-02-19T07:47:22.021Z,88.9
2018-02-19T07:48:02.572Z,86.72
2018-02-19T07:48:43.147Z,86.15
2018-02-19T07:49:23.683Z,85.49
2018-02-19T07:50:04.257Z,85.01
2018-02-19T07:50:44.808Z,83.3
2018-02-19T07:51:25.408Z,82.45
2018-02-19T07:52:06.039Z,82.73
2018-02-19T07:52:46.503Z,84.44
2018-02-19T07:53:27.086Z,84.34
2018-02-19T07:54:07.595Z,82.92
2018-02-19T07:54:48.093Z,82.54
2018-02-19T07:55:28.616Z,81.49
2018-02-19T07:56:09.242Z,79.41
2018-02-19T07:56:49.759Z,78.64
2018-02-19T07:57:30.330Z,78.74
2018-02-19T07:58:10.886Z,79.69
2018-02-19T07:58:51.463Z,80.74
2018-02-19T07:59:32.219Z,80.45
2018-02-19T08:00:12.927Z,81.3
2018-02-19T08:00:53.398Z,80.45
2018-02-19T08:01:33.911Z,79.5
2018-02-19T08:02:14.477Z,79.69
2018-02-19T08:02:55.036Z,80.26
2018-02-19T08:03:35.578Z,80.64
2018-02-19T08:04:16.159Z,80.64
2018-02-19T08:04:56.706Z,79.69
2018-02-19T08:05:37.269Z,78.74
2018-02-19T08:06:17.845Z,79.22
2018-02-19T08:06:58.389Z,80.74
2018-02-19T08:07:38.910Z,81.49
2018-02-19T08:08:19.446Z,81.68
2018-02-19T08:08:59.980Z,80.64
2018-02-19T08:09:40.779Z,79.88
2018-02-19T08:10:21.371Z,78.36
2018-02-19T08:11:01.922Z,78.74
2018-02-19T08:11:42.479Z,81.12
2018-02-19T08:12:23.111Z,81.68
2018-02-19T08:13:03.606Z,82.92
2018-02-19T08:13:44.228Z,82.16
2018-02-19T08:14:24.743Z,83.11
2018-02-19T08:15:05.280Z,85.3
2018-02-19T08:15:45.839Z,85.39
2018-02-19T08:16:26.417Z,81.97
2018-02-19T08:17:06.974Z,82.45
2018-02-19T08:17:47.518Z,83.39
2018-02-19T08:18:28.082Z,81.87
2018-02-19T08:19:08.763Z,83.01
2018-02-19T08:19:49.313Z,82.35
2018-02-19T08:20:29.877Z,80.74
2018-02-19T08:21:10.567Z,85.49
2018-02-19T08:21:51.107Z,99.99
2018-02-19T08:22:31.785Z,99.99
2018-02-19T08:23:12.356Z,99.99
2018-02-19T08:23:52.965Z,99.99
2018-02-19T08:24:33.453Z,99.99
2018-02-19T08:25:14.022Z,99.99
2018-02-19T08:25:54.608Z,99.99
2018-02-19T08:26:35.162Z,99.99
2018-02-19T08:27:15.711Z,99.99
2018-02-19T08:27:56.259Z,94.79
2018-02-19T08:28:36.853Z,91.47
2018-02-19T08:29:17.358Z,90.33
2018-02-19T08:29:57.905Z,87.76
2018-02-19T08:30:38.543Z,84.72
2018-02-19T08:31:19.091Z,82.35
2018-02-19T08:31:59.658Z,83.11
2018-02-19T08:32:40.252Z,86.53
2018-02-19T08:33:20.800Z,92.75
2018-02-19T08:34:01.370Z,99.99
2018-02-19T08:34:41.929Z,99.99
2018-02-19T08:35:22.503Z,99.99
2018-02-19T08:36:03.056Z,99.99
2018-02-19T08:36:43.631Z,99.99
2018-02-19T08:37:24.185Z,99.99
2018-02-19T08:38:04.743Z,99.99
2018-02-19T08:38:45.327Z,99.99
2018-02-19T08:39:25.915Z,99.99
2018-02-19T08:40:06.496Z,99.99
2018-02-19T08:40:47.233Z,99.99
2018-02-19T08:41:27.796Z,96.08
2018-02-19T08:42:08.365Z,92.94
2018-02-19T08:42:48.899Z,89.23
2018-02-19T08:43:29.505Z,85.91